Decoded Metar for PAFS (NIKOLAI in AK, USA) (IATA:NIB) | Meteo·Mobile Aviation Weather
aviador You're here:

PAFS Decoded Metar

NIKOLAI in AK, USA
Report Time2019-07-20 13:01:00
UTC Time2019-07-20 13:25:40
Flight Rules mvfr MVFR
Wind230° at 05 kt
W.Decomp.*RWY 22: 4.9 kt HW 0.8 kt LCW
Visibility6437 m
Phenomena:Haze
Clouds:Scattered 033 Hf
Overcast 044 Hf
Expected CloudBase > 1,200 ft AGL from Temp-Dew spread
Ceiling4,400 ft
Temp14°C (ISA -0)
Dew Point11°C (82% RH)
AAT12.5°C
QNH1018 hPa
Density Alt400 ft
Elevation413 ft
Report Wrong Elevation
Raw Report
PAFS 201301Z AUTO 23005KT 4SM HZ SCT033 OVC044 14/11 A3006=

Extra information for PAFS:More info

Metar Taf Metar & Taf Last 4 Metars F.Rules Stats Wind Profile Meteogram Temp Stats Airport Information Weather charts Add Link Nearby VenuesMetar ALERT Operation Metar Decoded Social comments

AIRNAV info for PAFS